AirNav   Air Wisconsin Up To $57,000 Bonus
 
 1005 users online  

VA71 Aden Field Airport
Manassas, Virginia, USA

GOING TO MANASSAS?


FAA INFORMATION EFFECTIVE 07 NOVEMBER 2019

Location

FAA Identifier: VA71
Lat/Long: 38-38-54.4290N 077-31-57.9560W
38-38.907150N 077-31.965933W
38.6484525,-77.5327656
(estimated)
Elevation: 210 ft. / 64 m (estimated)
Variation: 09W (1985)
From city: 8 miles SW of MANASSAS, VA
Time zone: UTC -5 (UTC -4 during Daylight Saving Time)
Zip code: 20181

Airport Operations

Airport use: Private use. Permission required prior to landing
Activation date: 06/1974
Control tower: no
ARTCC: WASHINGTON CENTER
FSS: LEESBURG FLIGHT SERVICE STATION
Attendance: UNATNDD
Wind indicator: yes
Segmented circle: no

Airport Communications

WX AWOS-3PT at HEF (4 nm N): PHONE 703-361-6160
WX AWOS-3 at HWY (9 nm SW): 120.350 (540-788-4078)
WX AWOS-3 at RMN (15 nm S): 126.325 (540-657-8283)
WX AWOS-3 at CJR (17 nm SW): 119.325 (540-727-0523)
WX ASOS at IAD (18 nm N): PHONE 703-661-2990

Nearby radio navigation aids

VOR radial/distance  VOR name  Freq  Var
CSNr094/15.6CASANOVA VORTAC116.3006W
AMLr198/17.4ARMEL VOR/DME113.5008W
BRVr345/20.5BROOKE VORTAC114.5009W
DCAr250/26.5WASHINGTON VOR/DME111.0009W
ADWr263/32.6ANDREWS VORTAC113.1010W
LDNr117/33.8LINDEN VORTAC114.3006W
OTTr275/37.1NOTTINGHAM VORTAC113.7010W

 
NDB name  Hdg/Dist  Freq  Var  ID
DAVEE277/19.822309WDAA -.. .- .-
NAILR066/21.035110WMSQ -- ... --.-
SHANNON000/23.223710WEZF . --.. ..-.
OXONN264/24.733211WDCA -.. -.-. .-
GEORGETOWN238/25.532309WGTN --. - -.

Airport Services

Airframe service: NONE
Powerplant service: NONE

Runway Information

Runway 3/21

Dimensions: 2000 x 100 ft. / 610 x 30 m
Surface: turf
RUNWAY 3  RUNWAY 21
Traffic pattern: rightright
Obstructions: treesnone

Airport Ownership and Management from official FAA records

Ownership: Privately-owned
Owner: ALLAN D. CORS
7413 GEORGETOWN CT
MCLEAN, VA 22102
Phone 703-827-0735
Manager: 13906 ADEN RD
NOKESVILLE, VA 22123
Phone 703-594-3030

Airport Operational Statistics

Aircraft based on the field: 1
Single engine airplanes: 1
    

Additional Remarks

RWY UNDER CONSTRUCTION--CLOSED UNTIL FURTHER NOTICE.
OWNER DESIRES ARPT NOT BE CHARTED.
FOR CD CTC POTOMAC APCH AT 866-709-4993.

Instrument Procedures

There are no published instrument procedures at VA71.

Some nearby airports with instrument procedures:

KHEF - Manassas Regional Airport/Harry P. Davis Field (4 nm N)
KHWY - Warrenton-Fauquier Airport (9 nm SW)
KNYG - Quantico Marine Corps Airfield / Turner Field (14 nm SE)
KRMN - Stafford Regional Airport (15 nm S)
KDAA - Davison Army Airfield (17 nm E)
KCJR - Culpeper Regional Airport (17 nm SW)
KIAD - Washington Dulles International Airport (18 nm N)
 
Loc | Ops | Rwys | IFR | FBO | Links
Com | Nav | Svcs | Stats | Notes
Area around VA71 (Aden Field Airport)
 
Road maps at: MapQuest Bing Google
 
Aerial photo
No photo
 
Sectional chart

 
Airport distance calculator
Flying to Aden Field Airport? Find the distance to fly.

From to VA71

Sunrise and sunset
Times for 16-Nov-2019
 Local
(UTC-5)
 Zulu
(UTC)
Morning civil twilight06:2611:26
Sunrise06:5411:54
Sunset16:5621:56
Evening civil twilight17:2422:24

Current date and time
Zulu (UTC)  16-Nov-2019 21:06:55
Local (UTC-5)  16-Nov-2019 16:06:55
 
METAR
KHEF 
4nm N 
162056Z 07009KT 10SM CLR 07/M11 A3033 RMK AO2 SLP277 T00721111 55003
KHWY 
9nm SW 
162055Z AUTO 07008KT 10SM CLR 08/M13 A3031 RMK AO2 T00801127
KNYG 
15nm SE 
162056Z AUTO 03012KT 10SM CLR 07/ A3034 RMK AO2 SLP274 T0072 56003 $
KRMN 
15nm S 
162055Z AUTO 05008KT 10SM CLR 07/M08 A3035 RMK AO2 T00711076
KIAD 
18nm N 
162052Z 04010G17KT 10SM CLR 07/M11 A3033 RMK AO2 SLP272 T00671111 56004
KDAA 
18nm E 
162056Z AUTO 04003KT 10SM CLR 07/M11 A3034 RMK AO2 SLP277 T00671115 53001 $
TAF
KNYG 
15nm SE 
1521/1621 VRB06KT 9999 SCT150 BKN250 QNH3019INS BECMG 1606/1608 02012G22KT BKN020 BKN250 QNH3022INS T12/1520Z T01/1611Z LAST NO AMDS TIL 1709
KIAD 
18nm N 
161730Z 1618/1724 03012G20KT P6SM SKC FM170000 03011KT P6SM FEW250 FM171200 36009KT P6SM OVC040 FM171800 01009KT P6SM OVC030
KDAA 
18nm E 
160200Z 1602/1708 34009KT 9999 FEW250 QNH3017INS BECMG 1607/1608 02012KT 9999 SCT020 QNH3019INS BECMG 1613/1614 03012G18KT 9999 FEW040 510152 QNH3023INS BECMG 1623/1624 05012KT 9999 FEW070 SCT090 QNH3025INS TX07/1602Z TN00/1613Z LAST NO AMDS AFT 1602 NEXT 1810
NOTAMs
Click for the latest NOTAMs
NOTAMs are issued by the DoD/FAA and will open in a separate window not controlled by AirNav.

 

 
 

Would you like to see your business listed on this page?

 If your business provides an interesting product or service to pilots, flight crews, aircraft, or users of the Aden Field Airport, you should consider listing it here.  To start the listing process, click on the button below
 
Add a business
 

Other Pages about Aden Field Airport

Update a link
 
Copyright © AirNav, LLC. All rights reserved. Privacy Policy  Contact